Time;durP1;ratioP1;P1;durP2;ratioP2;P2;SDS_P1;SDS_P2;PMS_P1;PMS_P2;Temp;Humidity;BMP_temperature;BMP_pressure;BME280_temperature;BME280_humidity;BME280_pressure;Samples;Min_cycle;Max_cycle;Signal;HPM_P1;HPM_P2
2022/01/10 00:00:50;;;;;;;0.80;0.80;;;;;;;-7.74;81.63;98951.84;4916736;29;20056;-86
2022/01/10 00:03:18;;;;;;;0.65;0.65;;;;;;;-7.79;81.64;98950.56;4917112;29;20079;-86
2022/01/10 00:05:45;;;;;;;0.90;0.90;;;;;;;-7.80;81.93;98954.97;4916941;29;20419;-87
2022/01/10 00:08:14;;;;;;;0.70;0.70;;;;;;;-7.82;81.82;98948.19;4916489;29;20143;-85
2022/01/10 00:10:43;;;;;;;0.80;0.80;;;;;;;-7.79;81.77;98947.97;4917274;29;20079;-87
2022/01/10 00:13:10;;;;;;;0.90;0.90;;;;;;;-7.76;81.85;98958.16;4917112;29;20409;-84
2022/01/10 00:15:38;;;;;;;0.70;0.70;;;;;;;-7.71;81.93;98950.75;4916366;29;20052;-85
2022/01/10 00:18:05;;;;;;;0.95;0.95;;;;;;;-7.70;81.96;98955.03;4913499;29;20052;-86
2022/01/10 00:20:32;;;;;;;0.90;0.90;;;;;;;-7.70;81.77;98955.03;4909476;29;20055;-85
2022/01/10 00:23:00;;;;;;;0.77;0.77;;;;;;;-7.70;81.87;98950.59;4917178;29;20104;-85
2022/01/10 00:25:27;;;;;;;0.90;0.90;;;;;;;-7.71;81.89;98951.56;4917578;29;20082;-86
2022/01/10 00:27:56;;;;;;;0.80;0.80;;;;;;;-7.70;81.94;98947.97;4916927;29;20465;-86
2022/01/10 00:30:24;;;;;;;0.90;0.90;;;;;;;-7.67;81.96;98946.91;4908435;29;20138;-86
2022/01/10 00:32:52;;;;;;;0.63;0.63;;;;;;;-7.64;81.60;98941.41;4916150;29;20495;-86
2022/01/10 00:35:19;;;;;;;0.70;0.70;;;;;;;-7.65;81.79;98944.97;4916386;29;20060;-86
2022/01/10 00:37:47;;;;;;;0.93;0.93;;;;;;;-7.65;81.92;98942.34;4915943;29;20467;-85
2022/01/10 00:40:16;;;;;;;0.80;0.80;;;;;;;-7.61;82.12;98941.16;4917500;29;20048;-86
2022/01/10 00:42:52;;;;;;;0.65;0.65;;;;;;;-7.59;81.85;98943.66;4935545;29;20074;-86
2022/01/10 00:45:23;;;;;;;0.80;0.80;;;;;;;-7.60;81.91;98940.19;4933732;29;20052;-86
2022/01/10 00:47:50;;;;;;;0.90;0.90;;;;;;;-7.60;81.82;98940.19;4929466;29;20483;-84
2022/01/10 00:50:17;;;;;;;1.00;1.00;;;;;;;-7.55;81.89;98948.47;4935037;29;20130;-86
2022/01/10 00:52:45;;;;;;;0.80;0.80;;;;;;;-7.56;81.80;98954.69;4934557;29;20072;-86
2022/01/10 00:55:13;;;;;;;0.90;0.90;;;;;;;-7.60;81.72;98949.84;4935184;29;20051;-87
2022/01/10 00:57:40;;;;;;;0.80;0.80;;;;;;;-7.61;81.83;98940.31;4928618;29;20051;-86
2022/01/10 01:00:09;;;;;;;0.70;0.70;;;;;;;-7.61;81.85;98929.84;4934739;29;20086;-86
2022/01/10 01:02:36;;;;;;;0.80;0.80;;;;;;;-7.61;81.84;98930.66;4935247;29;20143;-87
2022/01/10 01:05:07;;;;;;;0.80;0.80;;;;;;;-7.57;81.82;98936.47;4931526;29;20130;-87
2022/01/10 01:07:37;;;;;;;0.80;0.80;;;;;;;-7.58;81.83;98934.81;4935017;29;20082;-86
2022/01/10 01:10:41;;;;;;;0.77;0.77;;;;;;;-7.61;82.00;98930.66;4934831;29;20094;-86
2022/01/10 01:13:06;;;;;;;0.90;0.90;;;;;;;-7.55;81.90;98930.13;4934350;29;20059;-86
2022/01/10 01:15:44;;;;;;;0.77;0.77;;;;;;;-7.55;81.88;98930.13;4934440;29;20082;-86
2022/01/10 01:18:20;;;;;;;0.80;0.80;;;;;;;-7.52;81.73;98924.66;4934108;29;20055;-86
2022/01/10 01:26:19;;;;;;;0.60;0.60;;;;;;;-7.53;82.04;98919.53;4941304;29;20082;-85
2022/01/10 01:28:46;;;;;;;0.80;0.80;;;;;;;-7.60;82.14;98916.59;4945247;29;20055;-86
2022/01/10 01:31:13;;;;;;;0.90;0.90;;;;;;;-7.61;82.22;98914.94;4932375;29;20054;-86
2022/01/10 01:33:40;;;;;;;0.70;0.70;;;;;;;-7.58;82.27;98919.09;4935121;29;20056;-86
2022/01/10 01:36:08;;;;;;;0.90;0.90;;;;;;;-7.57;82.21;98918.97;4933880;29;20107;-86
2022/01/10 01:38:36;;;;;;;0.75;0.75;;;;;;;-7.55;82.25;98914.41;4929844;29;20043;-85
2022/01/10 01:41:41;;;;;;;0.80;0.80;;;;;;;-7.61;82.20;98907.06;4932661;29;20140;-87
2022/01/10 01:43:59;;;;;;;0.77;0.77;;;;;;;-7.62;82.45;98905.44;4927338;29;20070;-86
2022/01/10 01:46:26;;;;;;;0.90;0.90;;;;;;;-7.59;82.36;98902.53;4910881;29;20471;-85
2022/01/10 01:48:54;;;;;;;0.65;0.65;;;;;;;-7.56;82.29;98897.03;4933192;29;20056;-85
2022/01/10 01:51:24;;;;;;;0.70;0.70;;;;;;;-7.54;82.23;98908.22;4917345;29;20068;-85
2022/01/10 01:53:52;;;;;;;0.93;0.93;;;;;;;-7.54;82.20;98912.63;4917371;29;20099;-86
2022/01/10 01:56:21;;;;;;;0.90;0.90;;;;;;;-7.54;82.52;98910.84;4918305;29;20047;-86
2022/01/10 01:58:51;;;;;;;0.70;0.70;;;;;;;-7.56;82.62;98902.25;4934026;29;20047;-85
2022/01/10 02:01:19;;;;;;;0.75;0.75;;;;;;;-7.59;82.50;98910.41;4933361;29;20047;-86
2022/01/10 02:03:48;;;;;;;0.60;0.60;;;;;;;-7.56;82.49;98910.13;4930319;29;20475;-86
2022/01/10 02:06:21;;;;;;;0.65;0.65;;;;;;;-7.56;82.68;98906.69;4921194;29;20071;-85
2022/01/10 02:08:48;;;;;;;0.82;0.82;;;;;;;-7.56;82.57;98902.25;4936977;29;20052;-85
2022/01/10 02:11:16;;;;;;;0.60;0.60;;;;;;;-7.54;82.54;98904.78;4936911;29;20060;-86
2022/01/10 02:13:44;;;;;;;0.90;0.90;;;;;;;-7.53;82.55;98903.78;4938646;29;20492;-86
2022/01/10 02:16:39;;;;;;;0.80;0.80;;;;;;;-7.53;82.58;98901.19;4930042;29;20063;-85
2022/01/10 02:19:10;;;;;;;0.90;0.90;;;;;;;-7.52;82.24;98893.19;4936336;29;20059;-86
2022/01/10 02:21:38;;;;;;;0.90;0.90;;;;;;;-7.54;82.27;98889.03;4937479;29;20051;-85
2022/01/10 02:24:05;;;;;;;0.70;0.70;;;;;;;-7.55;82.48;98896.06;4934075;29;20098;-86
2022/01/10 02:26:33;;;;;;;0.85;0.85;;;;;;;-7.54;82.51;98895.09;4930106;29;20051;-86
2022/01/10 02:29:00;;;;;;;0.73;0.73;;;;;;;-7.58;82.40;98895.50;4937184;29;20051;-84
2022/01/10 02:31:27;;;;;;;0.80;0.80;;;;;;;-7.58;82.55;98893.69;4929343;29;20051;-86
2022/01/10 02:33:57;;;;;;;0.65;0.65;;;;;;;-7.56;82.61;98896.19;4935158;29;20051;-85
2022/01/10 02:36:27;;;;;;;0.90;0.90;;;;;;;-7.55;82.46;98898.66;4937267;29;20086;-85
2022/01/10 02:38:59;;;;;;;0.93;0.93;;;;;;;-7.55;82.50;98898.66;4937099;29;20056;-86
2022/01/10 02:41:30;;;;;;;0.80;0.80;;;;;;;-7.59;82.52;98894.69;4929238;29;20083;-87
2022/01/10 02:44:07;;;;;;;0.90;0.90;;;;;;;-7.58;82.54;98891.06;4935758;29;20440;-85
2022/01/10 02:46:35;;;;;;;0.70;0.70;;;;;;;-7.55;82.70;98895.22;4936927;29;20138;-86
2022/01/10 02:49:11;;;;;;;0.70;0.70;;;;;;;-7.52;82.66;98900.19;4933835;29;20051;-85
2022/01/10 02:51:40;;;;;;;1.02;1.02;;;;;;;-7.52;82.48;98898.44;4930932;29;20067;-87
2022/01/10 02:54:08;;;;;;;1.05;1.05;;;;;;;-7.48;82.67;98891.13;4936639;29;20052;-85
2022/01/10 02:56:48;;;;;;;0.80;0.80;;;;;;;-7.48;82.72;98901.59;4930128;29;20047;-85
2022/01/10 02:59:15;;;;;;;1.00;1.00;;;;;;;-7.52;82.81;98898.44;4935526;29;20047;-86
2022/01/10 03:01:43;;;;;;;0.88;0.88;;;;;;;-7.45;82.88;98899.53;4934652;29;20103;-86
2022/01/10 03:04:11;;;;;;;0.82;0.82;;;;;;;-7.45;82.93;98904.78;4945398;29;20060;-87
2022/01/10 03:06:39;;;;;;;0.80;0.80;;;;;;;-7.41;82.92;98897.50;4937324;29;20080;-85
2022/01/10 03:09:07;;;;;;;0.88;0.88;;;;;;;-7.41;82.81;98894.88;4917411;29;20055;-88
2022/01/10 03:11:36;;;;;;;0.80;0.80;;;;;;;-7.43;82.88;98899.41;4930238;29;20067;-87
2022/01/10 03:14:03;;;;;;;0.70;0.70;;;;;;;-7.46;83.05;98907.56;4920573;29;20047;-89
2022/01/10 03:16:31;;;;;;;0.77;0.77;;;;;;;-7.45;82.79;98902.16;4915199;29;20056;-86
2022/01/10 03:18:58;;;;;;;0.80;0.80;;;;;;;-7.43;83.26;98915.16;4935874;29;20051;-86
2022/01/10 03:21:25;;;;;;;0.60;0.60;;;;;;;-7.41;83.04;98916.69;4936312;29;20044;-82
2022/01/10 03:23:52;;;;;;;0.80;0.80;;;;;;;-7.39;83.07;98919.19;4936391;29;20067;-84
2022/01/10 03:26:21;;;;;;;0.80;0.80;;;;;;;-7.40;83.12;98912.25;4903990;29;20049;-84
2022/01/10 03:28:48;;;;;;;0.80;0.80;;;;;;;-7.37;83.41;98916.41;4897657;29;20057;-86
2022/01/10 03:31:16;;;;;;;0.80;0.80;;;;;;;-7.37;83.23;98916.41;4901209;29;20075;-87
2022/01/10 03:33:44;;;;;;;0.60;0.60;;;;;;;-7.31;83.32;98915.88;4901734;29;20055;-88
2022/01/10 03:36:11;;;;;;;0.80;0.80;;;;;;;-7.31;83.31;98921.97;4885134;29;20104;-88
2022/01/10 03:38:39;;;;;;;0.82;0.82;;;;;;;-7.30;83.14;98922.78;4911255;29;20032;-87
2022/01/10 03:41:06;;;;;;;0.50;0.50;;;;;;;-7.34;83.10;98919.59;4925233;29;20047;-86
2022/01/10 03:43:33;;;;;;;0.70;0.70;;;;;;;-7.30;83.09;98917.53;4941511;29;20033;-86
2022/01/10 03:46:02;;;;;;;0.70;0.70;;;;;;;-7.28;83.22;98921.69;4910739;29;20082;-86
2022/01/10 03:48:29;;;;;;;0.60;0.60;;;;;;;-7.27;83.10;98917.25;4908734;29;20365;-89
2022/01/10 03:50:57;;;;;;;0.70;0.70;;;;;;;-7.27;82.93;98914.63;4890417;29;20048;-88
2022/01/10 03:53:26;;;;;;;0.70;0.70;;;;;;;-7.29;83.33;98914.78;4907280;29;20574;-91
2022/01/10 03:56:04;;;;;;;0.84;0.84;;;;;;;-7.30;83.32;98920.16;4889998;29;10001392;-86
2022/01/10 03:58:33;;;;;;;1.02;1.02;;;;;;;-7.26;83.58;98921.56;4897387;29;20257;-87
2022/01/10 04:01:02;;;;;;;0.68;0.68;;;;;;;-7.26;83.25;98913.69;4914368;29;20055;-88
2022/01/10 04:03:33;;;;;;;0.73;0.73;;;;;;;-7.21;83.43;98922.00;4908431;29;20288;-86
2022/01/10 04:06:08;;;;;;;0.80;0.80;;;;;;;-7.18;83.22;98919.09;4900085;29;20048;-87
2022/01/10 04:08:35;;;;;;;0.70;0.70;;;;;;;-7.18;82.97;98913.03;4916328;29;20083;-89
2022/01/10 04:11:04;;;;;;;0.90;0.90;;;;;;;-7.22;82.98;98920.31;4911484;29;20104;-86
2022/01/10 04:13:33;;;;;;;0.60;0.60;;;;;;;-7.25;83.04;98915.34;4907649;29;20048;-92
2022/01/10 04:16:01;;;;;;;0.70;0.70;;;;;;;-7.24;83.28;98915.22;4916190;29;20048;-88
2022/01/10 04:18:28;;;;;;;0.68;0.68;;;;;;;-7.24;83.26;98912.59;4915745;29;20543;-90
2022/01/10 04:20:55;;;;;;;0.90;0.90;;;;;;;-7.29;82.92;98913.94;4915444;29;20112;-90
2022/01/10 04:23:23;;;;;;;0.70;0.70;;;;;;;-7.30;83.01;98917.53;4915155;29;20135;-90
2022/01/10 04:25:51;;;;;;;0.80;0.80;;;;;;;-7.31;83.17;98918.50;4909389;29;20062;-88
2022/01/10 04:28:19;;;;;;;0.70;0.70;;;;;;;-7.28;83.16;98918.25;4897798;29;20054;-88
2022/01/10 04:30:46;;;;;;;0.57;0.57;;;;;;;-7.32;83.08;98920.28;4897403;29;20048;-90
2022/01/10 04:33:18;;;;;;;0.80;0.80;;;;;;;-7.29;83.10;98932.28;4917167;29;20087;-87
2022/01/10 04:35:48;;;;;;;0.73;0.73;;;;;;;-7.24;83.26;98932.72;4895861;29;20365;-86
2022/01/10 04:38:17;;;;;;;0.60;0.60;;;;;;;-7.20;83.08;98934.13;4915638;29;20048;-86
2022/01/10 04:40:44;;;;;;;0.60;0.60;;;;;;;-7.23;83.24;98937.03;4924914;29;20075;-87
2022/01/10 04:43:12;;;;;;;0.60;0.60;;;;;;;-7.23;83.42;98934.41;4916449;29;20071;-87
2022/01/10 04:45:39;;;;;;;0.80;0.80;;;;;;;-7.21;83.46;98933.31;4910842;29;20416;-87
2022/01/10 04:48:07;;;;;;;0.70;0.70;;;;;;;-7.18;83.53;98940.06;4915226;29;20048;-86
2022/01/10 04:53:03;;;;;;;0.63;0.63;;;;;;;-7.18;83.40;98944.50;4914983;29;20427;-85
2022/01/10 04:55:30;;;;;;;0.70;0.70;;;;;;;-7.17;83.34;98952.22;4860595;29;20065;-87
2022/01/10 04:57:57;;;;;;;0.82;0.82;;;;;;;-7.20;83.19;98960.34;4912735;29;20079;-88
2022/01/10 05:00:25;;;;;;;0.70;0.70;;;;;;;-7.26;83.31;98953.84;4907650;29;20052;-87
2022/01/10 05:02:52;;;;;;;0.63;0.63;;;;;;;-7.23;83.32;98961.47;4885918;29;20072;-88
2022/01/10 05:05:21;;;;;;;0.60;0.60;;;;;;;-7.21;83.41;98953.47;4900562;29;20135;-91
2022/01/10 05:07:48;;;;;;;0.80;0.80;;;;;;;-7.23;83.43;98958.00;4912846;29;20048;-86
2022/01/10 05:10:17;;;;;;;0.80;0.80;;;;;;;-7.27;83.73;98960.03;4921836;29;20056;-86
2022/01/10 05:12:46;;;;;;;0.60;0.60;;;;;;;-7.29;83.56;98953.28;4898092;29;20056;-86
2022/01/10 05:15:13;;;;;;;0.80;0.80;;;;;;;-7.28;83.64;98955.78;4898696;29;20048;-88
2022/01/10 05:17:40;;;;;;;0.73;0.73;;;;;;;-7.27;83.83;98961.84;4909384;29;20051;-88
2022/01/10 05:20:09;;;;;;;0.60;0.60;;;;;;;-7.26;83.54;98961.72;4911941;29;20052;-87
2022/01/10 05:22:36;;;;;;;0.80;0.80;;;;;;;-7.28;83.71;98971.50;4908706;29;20056;-88
2022/01/10 05:25:03;;;;;;;0.80;0.80;;;;;;;-7.31;83.74;98966.53;4914561;29;20082;-87
2022/01/10 05:27:32;;;;;;;0.68;0.68;;;;;;;-7.28;83.83;98982.00;4905854;29;20591;-87
2022/01/10 05:30:04;;;;;;;0.63;0.63;;;;;;;-7.21;83.46;98984.94;4914253;29;20055;-87
2022/01/10 05:32:33;;;;;;;0.73;0.73;;;;;;;-7.18;83.67;98989.09;4907883;29;20135;-87
2022/01/10 05:35:11;;;;;;;0.70;0.70;;;;;;;-7.24;83.66;98983.41;4913806;29;20076;-88
2022/01/10 05:37:39;;;;;;;0.70;0.70;;;;;;;-7.21;83.87;98988.38;4910200;29;20074;-87
2022/01/10 05:40:07;;;;;;;0.80;0.80;;;;;;;-7.23;83.74;98986.84;4918339;29;20050;-87
2022/01/10 05:42:34;;;;;;;0.70;0.70;;;;;;;-7.26;83.84;98989.75;4919847;29;20068;-87
2022/01/10 05:45:02;;;;;;;0.70;0.70;;;;;;;-7.21;84.01;99000.69;4916582;29;20142;-87
2022/01/10 05:47:33;;;;;;;0.85;0.85;;;;;;;-7.19;83.73;98998.72;4865719;29;20052;-86
2022/01/10 05:50:03;;;;;;;0.90;0.90;;;;;;;-7.21;83.58;99001.50;4910067;29;20057;-86
2022/01/10 05:52:37;;;;;;;0.60;0.60;;;;;;;-7.21;83.37;98998.06;4883536;29;20056;-87
2022/01/10 05:55:05;;;;;;;0.75;0.75;;;;;;;-7.18;83.01;98996.97;4882931;29;20120;-87
2022/01/10 05:57:35;;;;;;;0.70;0.70;;;;;;;-7.17;83.38;98996.81;4883489;29;20531;-87
2022/01/10 06:00:04;;;;;;;0.70;0.70;;;;;;;-7.17;83.23;99002.06;4882970;29;20056;-87
2022/01/10 06:02:41;;;;;;;0.85;0.85;;;;;;;-7.21;83.33;99001.50;4900899;29;20070;-87
2022/01/10 06:05:14;;;;;;;0.90;0.90;;;;;;;-7.23;83.47;98992.09;4883326;29;20495;-88
2022/01/10 06:07:46;;;;;;;0.68;0.68;;;;;;;-7.21;83.34;99005.91;4883278;29;20135;-88
2022/01/10 06:10:13;;;;;;;0.70;0.70;;;;;;;-7.21;83.02;99000.69;4882647;29;20056;-88
2022/01/10 06:12:41;;;;;;;0.60;0.60;;;;;;;-7.20;83.16;99007.56;4883323;29;20139;-88
2022/01/10 06:15:08;;;;;;;0.60;0.60;;;;;;;-7.16;83.08;99016.84;4893530;29;20075;-87
2022/01/10 06:17:41;;;;;;;0.90;0.90;;;;;;;-7.15;83.13;99009.81;4908968;29;20060;-87
2022/01/10 06:20:09;;;;;;;0.80;0.80;;;;;;;-7.17;83.00;99007.31;4908893;29;20553;-87
2022/01/10 06:22:37;;;;;;;0.85;0.85;;;;;;;-7.14;83.20;99008.84;4913689;29;20049;-88
2022/01/10 06:25:07;;;;;;;0.80;0.80;;;;;;;-7.16;83.43;99003.72;4907572;29;20062;-87
2022/01/10 06:27:35;;;;;;;0.63;0.63;;;;;;;-7.10;83.23;99008.44;4903687;29;20044;-87
2022/01/10 06:30:03;;;;;;;0.80;0.80;;;;;;;-7.05;83.22;99011.50;4908712;29;20055;-86
2022/01/10 06:32:34;;;;;;;0.70;0.70;;;;;;;-7.04;83.13;99009.69;4900099;29;20071;-87
2022/01/10 06:35:02;;;;;;;0.50;0.50;;;;;;;-7.05;82.83;99013.28;4891605;29;20087;-87
2022/01/10 06:37:30;;;;;;;0.60;0.60;;;;;;;-7.07;83.02;99021.28;4907920;29;20045;-87
2022/01/10 06:39:57;;;;;;;0.80;0.80;;;;;;;-7.06;82.87;99017.72;4912159;29;20056;-87
2022/01/10 06:42:25;;;;;;;0.90;0.90;;;;;;;-7.05;82.76;99010.66;4904364;29;20075;-86
2022/01/10 06:44:52;;;;;;;0.65;0.65;;;;;;;-7.05;82.53;99014.13;4915188;29;20525;-85
2022/01/10 06:47:20;;;;;;;0.98;0.98;;;;;;;-7.06;82.58;99015.09;4916951;29;20146;-91
2022/01/10 06:49:47;;;;;;;0.77;0.77;;;;;;;-7.04;82.51;99015.81;4917262;29;20534;-86
2022/01/10 06:52:16;;;;;;;0.80;0.80;;;;;;;-6.98;82.32;99017.88;4919937;29;20055;-88
2022/01/10 06:54:46;;;;;;;0.60;0.60;;;;;;;-6.97;82.28;99022.16;4914235;29;20203;-91
2022/01/10 06:57:14;;;;;;;0.65;0.65;;;;;;;-6.93;81.99;99029.78;4920078;29;20108;-91
2022/01/10 06:59:42;;;;;;;0.77;0.77;;;;;;;-6.91;81.92;99022.59;4904612;29;20072;-86
2022/01/10 07:02:10;;;;;;;0.85;0.85;;;;;;;-6.93;81.66;99027.97;4922849;29;20138;-87
2022/01/10 07:04:37;;;;;;;0.60;0.60;;;;;;;-6.94;81.87;99028.09;4924686;29;20067;-87
2022/01/10 07:07:07;;;;;;;0.73;0.73;;;;;;;-6.89;81.63;99031.16;4934557;29;20052;-86
2022/01/10 07:09:39;;;;;;;0.70;0.70;;;;;;;-6.94;81.51;99028.94;4928483;29;20049;-87
2022/01/10 07:12:11;;;;;;;0.70;0.70;;;;;;;-6.89;81.82;99028.53;4917906;29;20136;-86
2022/01/10 07:14:54;;;;;;;0.90;0.90;;;;;;;-6.89;81.38;99026.72;4932132;29;20047;-88
2022/01/10 07:17:21;;;;;;;0.70;0.70;;;;;;;-6.86;81.71;99025.63;4903832;29;20056;-86
2022/01/10 07:19:50;;;;;;;0.75;0.75;;;;;;;-6.92;81.64;99029.63;4917460;29;20052;-90
2022/01/10 07:22:22;;;;;;;0.60;0.60;;;;;;;-6.88;81.59;99030.22;4917523;29;20052;-91
2022/01/10 07:24:50;;;;;;;0.88;0.88;;;;;;;-6.80;81.34;99027.75;4916368;29;20142;-90
2022/01/10 07:27:17;;;;;;;0.70;0.70;;;;;;;-6.74;80.93;99027.19;4907357;29;20052;-89
2022/01/10 07:29:45;;;;;;;0.90;0.90;;;;;;;-6.69;81.01;99034.69;4912301;29;20104;-86
2022/01/10 07:32:13;;;;;;;0.80;0.80;;;;;;;-6.61;80.91;99034.84;4909274;29;20056;-84
2022/01/10 07:34:40;;;;;;;0.80;0.80;;;;;;;-6.50;80.57;99039.16;4912557;29;20044;-87
2022/01/10 07:37:07;;;;;;;0.65;0.65;;;;;;;-6.49;80.14;99032.94;4891620;29;20053;-85
2022/01/10 07:39:34;;;;;;;0.63;0.63;;;;;;;-6.46;79.80;99043.16;4902605;29;20079;-87
2022/01/10 07:42:02;;;;;;;0.90;0.90;;;;;;;-6.49;80.13;99035.56;4916541;29;20165;-88
2022/01/10 07:44:45;;;;;;;0.70;0.70;;;;;;;-6.47;79.85;99031.00;4910685;29;20107;-88
2022/01/10 07:47:12;;;;;;;0.77;0.77;;;;;;;-6.50;79.72;99042.63;4916665;29;20044;-88
2022/01/10 07:49:39;;;;;;;0.70;0.70;;;;;;;-6.45;79.41;99039.59;4910028;29;20116;-87
2022/01/10 07:52:07;;;;;;;0.88;0.88;;;;;;;-6.35;78.91;99043.88;4915544;29;20504;-88
2022/01/10 07:54:34;;;;;;;0.80;0.80;;;;;;;-6.29;79.19;99045.13;4917542;29;20094;-87
2022/01/10 07:57:01;;;;;;;0.95;0.95;;;;;;;-6.26;79.16;99036.97;4917592;29;20123;-89
2022/01/10 07:59:29;;;;;;;0.70;0.70;;;;;;;-6.16;79.43;99044.88;4925772;29;20052;-83
2022/01/10 08:01:56;;;;;;;0.63;0.63;;;;;;;-6.17;79.32;99041.41;4913642;29;20080;-86
2022/01/10 08:04:23;;;;;;;0.82;0.82;;;;;;;-6.20;79.13;99040.84;4905794;29;20062;-87
2022/01/10 08:06:51;;;;;;;0.70;0.70;;;;;;;-6.24;79.11;99037.66;4914393;29;20509;-89
2022/01/10 08:09:18;;;;;;;0.60;0.60;;;;;;;-6.24;79.17;99042.94;4913356;29;20107;-84
2022/01/10 08:11:46;;;;;;;0.80;0.80;;;;;;;-6.19;79.21;99035.47;4907174;29;20874;-83
2022/01/10 08:14:14;;;;;;;0.80;0.80;;;;;;;-6.20;79.14;99039.06;4913863;29;20044;-82
2022/01/10 08:16:41;;;;;;;0.80;0.80;;;;;;;-6.14;78.79;99038.50;4906910;29;20052;-89
2022/01/10 08:19:09;;;;;;;0.85;0.85;;;;;;;-6.12;78.64;99030.50;4912922;29;20051;-85
2022/01/10 08:21:36;;;;;;;0.77;0.77;;;;;;;-6.11;78.37;99038.22;4913625;29;20116;-87
2022/01/10 08:24:03;;;;;;;0.90;0.90;;;;;;;-6.08;78.51;99034.50;4909675;29;20048;-85
2022/01/10 08:26:31;;;;;;;0.90;0.90;;;;;;;-6.03;78.34;99040.16;4893647;29;20226;-86
2022/01/10 08:28:58;;;;;;;0.80;0.80;;;;;;;-6.04;78.13;99040.31;4908298;29;20101;-86
2022/01/10 08:31:25;;;;;;;0.82;0.82;;;;;;;-6.05;78.49;99046.53;4889769;29;20052;-86
2022/01/10 08:34:26;;;;;;;0.70;0.70;;;;;;;-6.01;78.48;99042.66;5104840;27;1552423;-91
2022/01/10 08:36:54;;;;;;;0.73;0.73;;;;;;;-6.21;78.20;99026.06;5130109;27;20050;-88
2022/01/10 08:39:22;;;;;;;0.73;0.73;;;;;;;-6.12;78.04;99044.47;5130063;27;20406;-89
2022/01/10 08:41:54;;;;;;;1.00;1.00;;;;;;;-6.15;77.66;99047.38;5116286;27;20040;-88
2022/01/10 08:44:21;;;;;;;0.80;0.80;;;;;;;-6.08;77.52;99046.81;5101297;28;20052;-91
2022/01/10 08:46:48;;;;;;;0.70;0.70;;;;;;;-6.05;77.25;99043.91;5099749;28;20051;-86
2022/01/10 08:49:15;;;;;;;0.90;0.90;;;;;;;-6.03;77.28;99047.22;5090396;28;20764;-87
2022/01/10 08:51:43;;;;;;;0.90;0.90;;;;;;;-6.04;77.18;99045.59;5110733;28;20066;-88
2022/01/10 08:54:10;;;;;;;0.90;0.90;;;;;;;-6.04;77.05;99056.91;5105813;28;20048;-90
2022/01/10 08:56:58;;;;;;;0.70;0.70;;;;;;;-6.12;77.31;99041.84;5125920;28;20039;-86
2022/01/10 08:59:30;;;;;;;0.63;0.63;;;;;;;-6.16;77.10;99048.31;5122383;28;20063;-86
2022/01/10 09:02:22;;;;;;;0.68;0.68;;;;;;;-6.19;77.60;99055.66;5075966;28;20514;-88
2022/01/10 09:04:50;;;;;;;0.60;0.60;;;;;;;-6.20;77.76;99054.84;5103918;28;20051;-84
2022/01/10 09:07:17;;;;;;;0.90;0.90;;;;;;;-6.21;77.41;99053.16;5091333;28;20079;-85
2022/01/10 09:09:44;;;;;;;0.80;0.80;;;;;;;-6.22;77.56;99055.94;5096855;28;20043;-86
2022/01/10 09:12:12;;;;;;;1.00;1.00;;;;;;;-6.26;78.05;99054.53;5103640;28;20067;-84
2022/01/10 09:14:39;;;;;;;0.80;0.80;;;;;;;-6.14;77.86;99049.03;5096764;28;20060;-86
2022/01/10 09:17:06;;;;;;;0.80;0.80;;;;;;;-6.02;77.36;99046.28;5092138;28;20063;-86
2022/01/10 09:19:34;;;;;;;0.70;0.70;;;;;;;-5.99;77.33;99048.63;5098521;28;20219;-86
2022/01/10 09:22:02;;;;;;;0.77;0.77;;;;;;;-6.03;77.34;99057.75;5104695;28;20083;-85
2022/01/10 09:24:29;;;;;;;0.70;0.70;;;;;;;-5.97;77.42;99054.59;5097441;28;20079;-88
2022/01/10 09:26:56;;;;;;;0.90;0.90;;;;;;;-6.03;77.25;99048.06;5105952;28;20096;-88
2022/01/10 09:29:24;;;;;;;0.68;0.68;;;;;;;-6.06;77.06;99050.97;5099290;28;20054;-86
2022/01/10 09:31:52;;;;;;;0.75;0.75;;;;;;;-6.09;77.32;99034.66;5107992;28;20048;-88
2022/01/10 09:34:19;;;;;;;0.80;0.80;;;;;;;-6.09;77.46;99029.41;5101669;28;20063;-86
2022/01/10 09:36:46;;;;;;;0.70;0.70;;;;;;;-6.11;77.02;99045.28;5099223;28;20052;-87
2022/01/10 09:39:14;;;;;;;0.70;0.70;;;;;;;-6.14;77.25;99049.03;5098223;28;20139;-85
2022/01/10 09:41:43;;;;;;;0.65;0.65;;;;;;;-6.07;77.55;99062.44;5102135;28;20079;-84
2022/01/10 09:44:10;;;;;;;0.75;0.75;;;;;;;-5.98;77.33;99063.41;5089453;28;20071;-84
2022/01/10 09:46:37;;;;;;;0.77;0.77;;;;;;;-5.88;76.85;99059.78;5082886;28;20372;-87
2022/01/10 09:49:06;;;;;;;0.73;0.73;;;;;;;-5.76;76.76;99052.59;5085255;28;20051;-85
2022/01/10 09:51:33;;;;;;;0.80;0.80;;;;;;;-5.59;76.65;99052.88;5085238;28;20396;-84
2022/01/10 09:54:02;;;;;;;0.90;0.90;;;;;;;-5.66;76.12;99053.41;5091986;28;20801;-86
2022/01/10 09:56:33;;;;;;;0.80;0.80;;;;;;;-5.60;76.49;99066.97;5086641;28;20052;-86
2022/01/10 09:59:21;;;;;;;0.70;0.70;;;;;;;-5.43;76.02;99060.19;5089626;28;20122;-85
2022/01/10 10:02:00;;;;;;;0.73;0.73;;;;;;;-5.40;75.13;99063.34;5076137;28;20048;-83
2022/01/10 10:04:28;;;;;;;0.90;0.90;;;;;;;-5.34;75.20;99060.16;5071825;28;20395;-86
2022/01/10 10:06:56;;;;;;;0.80;0.80;;;;;;;-5.21;74.90;99059.84;5084509;28;20044;-85
2022/01/10 10:09:26;;;;;;;0.80;0.80;;;;;;;-5.07;74.61;99059.38;5080077;28;20051;-82
2022/01/10 10:11:53;;;;;;;0.70;0.70;;;;;;;-4.90;73.85;99054.34;5057818;28;20045;-84
2022/01/10 10:14:22;;;;;;;0.82;0.82;;;;;;;-4.89;73.23;99050.72;5077331;28;20052;-84
2022/01/10 10:16:51;;;;;;;0.80;0.80;;;;;;;-4.89;73.08;99059.44;5088849;28;20040;-87
2022/01/10 10:19:25;;;;;;;0.75;0.75;;;;;;;-4.96;72.90;99049.66;5085558;28;20086;-85
2022/01/10 10:21:53;;;;;;;0.70;0.70;;;;;;;-5.00;72.87;99049.13;5089312;28;20091;-85
2022/01/10 10:24:24;;;;;;;0.73;0.73;;;;;;;-5.13;73.24;99040.72;5083030;28;20139;-85
2022/01/10 10:26:52;;;;;;;0.73;0.73;;;;;;;-5.36;73.88;99042.88;5085854;28;20055;-84
2022/01/10 10:29:19;;;;;;;0.75;0.75;;;;;;;-5.53;74.49;99052.28;5078796;28;20044;-86
2022/01/10 10:32:15;;;;;;;0.75;0.75;;;;;;;-5.61;74.52;99047.75;5090551;28;20495;-89
2022/01/10 10:34:43;;;;;;;0.70;0.70;;;;;;;-5.66;75.12;99061.31;5100938;28;20077;-86
2022/01/10 10:37:12;;;;;;;0.60;0.60;;;;;;;-5.68;75.00;99059.78;5079585;28;20577;-88
2022/01/10 10:39:44;;;;;;;0.60;0.60;;;;;;;-5.70;75.50;99059.94;5087274;28;20048;-87
2022/01/10 10:42:13;;;;;;;0.68;0.68;;;;;;;-5.72;75.51;99069.75;5091099;28;20137;-88
2022/01/10 10:44:44;;;;;;;0.60;0.60;;;;;;;-5.74;75.72;99063.81;5073146;28;20056;-84
2022/01/10 10:47:12;;;;;;;0.80;0.80;;;;;;;-5.84;75.86;99062.16;5083948;28;20052;-86
2022/01/10 10:49:45;;;;;;;0.77;0.77;;;;;;;-5.96;75.78;99067.56;5085609;28;20139;-86
2022/01/10 10:52:13;;;;;;;0.60;0.60;;;;;;;-5.99;75.95;99073.09;5086003;28;20054;-85
2022/01/10 10:54:41;;;;;;;0.70;0.70;;;;;;;-6.03;76.26;99070.88;5075340;28;20044;-83
2022/01/10 10:57:10;;;;;;;0.70;0.70;;;;;;;-5.95;76.42;99078.91;5080347;28;20077;-84
2022/01/10 10:59:43;;;;;;;0.70;0.70;;;;;;;-6.03;76.14;99074.34;5081694;28;20044;-87
2022/01/10 11:02:11;;;;;;;0.50;0.50;;;;;;;-6.03;76.36;99070.88;5088586;28;20151;-85
2022/01/10 11:04:41;;;;;;;0.65;0.65;;;;;;;-6.00;76.37;99073.22;5087720;28;20300;-86
2022/01/10 11:07:09;;;;;;;0.70;0.70;;;;;;;-6.03;76.15;99073.50;5084460;28;20043;-87
2022/01/10 11:09:57;;;;;;;0.80;0.80;;;;;;;-6.01;76.30;99076.84;5083309;28;20051;-87
2022/01/10 11:12:24;;;;;;;0.93;0.93;;;;;;;-6.02;76.39;99068.13;5093801;28;20509;-90
2022/01/10 11:14:52;;;;;;;0.60;0.60;;;;;;;-6.08;76.39;99062.56;5088076;28;20119;-87
2022/01/10 11:17:20;;;;;;;0.60;0.60;;;;;;;-6.07;76.58;99065.06;5061582;28;20072;-88
2022/01/10 11:20:26;;;;;;;0.80;0.80;;;;;;;-6.02;76.58;99056.78;5086832;28;20051;-88
2022/01/10 11:22:58;;;;;;;0.70;0.70;;;;;;;-6.08;76.45;99049.44;5029596;28;20104;-88
2022/01/10 11:25:28;;;;;;;0.60;0.60;;;;;;;-6.09;76.77;99059.13;5031566;28;20041;-86
2022/01/10 11:28:01;;;;;;;0.75;0.75;;;;;;;-6.07;76.81;99056.38;5028027;28;20141;-88
2022/01/10 11:30:44;;;;;;;0.80;0.80;;;;;;;-6.06;76.67;99055.38;5031261;28;20084;-88
2022/01/10 11:33:23;;;;;;;0.50;0.50;;;;;;;-6.13;76.66;99066.47;5029163;28;20057;-88
2022/01/10 11:35:57;;;;;;;0.70;0.70;;;;;;;-6.16;76.85;99079.84;5024159;28;20042;-89
2022/01/10 11:38:36;;;;;;;0.65;0.65;;;;;;;-6.11;76.92;99068.94;5003848;28;20850;-87
2022/01/10 11:41:09;;;;;;;0.70;0.70;;;;;;;-6.16;76.85;99069.34;5031016;28;20049;-88
2022/01/10 11:44:04;;;;;;;0.70;0.70;;;;;;;-6.24;76.95;99074.44;5031684;28;20068;-87
2022/01/10 11:46:41;;;;;;;0.75;0.75;;;;;;;-6.29;77.31;99068.78;5029943;28;20057;-87
2022/01/10 11:49:08;;;;;;;0.70;0.70;;;;;;;-6.36;77.33;99086.84;5022154;28;20049;-86
2022/01/10 11:52:06;;;;;;;0.70;0.70;;;;;;;-6.37;77.44;99081.75;5032370;28;20144;-85
2022/01/10 11:54:40;;;;;;;0.63;0.63;;;;;;;-6.33;77.67;99091.88;5030692;28;20061;-87